Racecast

Kayla Ford

Full Stride (CA) · - · STS · Compare head to head

Athlete rating
Races 53
Seasons 2 2013 — 2014
Speed rating — all races

Track & Field

TF speed rating

2014 TF

Full Stride (CA) · Grade -

Date Meet Event Result Place Rating Difficulty PR/SR Flags
2014-06-20 USATF Pacific Assoc. Junior Olympics (Top 8) 100m 12.9 12th · 2nd on team -0.031
2014-06-20 USATF Pacific Assoc. Junior Olympics (Top 8) 100m 12.59 3rd · 1st on team -0.031
2014-05-31 Pacific Association Championships (PAC) 100m 12.66 1st · 1st on team -0.024
2014-05-31 Pacific Association Championships (PAC) 100m 12.91 2nd · 2nd on team -0.024
2014-05-31 Pacific Association Championships (PAC) 200m 25.67 1st · 1st on team -0.024
2014-05-31 Pacific Association Championships (PAC) 200m 25.96 2nd · 2nd on team -0.024
2014-05-31 Pacific Association Championships (PAC) 400m 1:01.89 2nd · 1st on team -0.024
2014-05-24 Central Valley Roadrunners 400m 1:01.41 1st · 1st on team -0.026
2014-05-24 Central Valley Roadrunners 200m 25.6 1st · 1st on team -0.026 ★PR SR
2014-05-24 Central Valley Roadrunners 200m 26.06 2nd · 2nd on team -0.026
2014-04-26 Revolution Express TC 400m 1:01.41 1st · 1st on team -0.024 SR
2014-04-26 Revolution Express TC 200m 26.96 1st · 1st on team -0.024
2014-04-26 Revolution Express TC 100m 12.94 1st · 1st on team -0.024
2014-04-05 Sacramento Speed Showcase 200m 26.78 1st · 1st on team -0.033 SR
2014-04-05 Sacramento Speed Showcase 100m 12.49 1st · 1st on team -0.033 ★PR SR
2014-04-05 Sacramento Speed Showcase 400m 1:05.58 1st · 1st on team -0.033 SR
2014-03-22 RPM 400m 1:06.74 1st · 1st on team -0.012 SR
2014-03-22 RPM 100m 13.24 1st · 1st on team -0.012 SR

2013 TF

Full Stride (CA) · Grade -

Date Meet Event Result Place Rating Difficulty PR/SR Flags
2013-07-08 AAU Track and Field Club Championships 200m 26.38 38th · 2nd on team -0.012
2013-07-08 AAU Track and Field Club Championships 200m 26.15 30th · 1st on team -0.012
2013-07-08 AAU Track and Field Club Championships 100m 13.08 40th · 1st on team -0.012
2013-07-08 AAU Track and Field Club Championships 100m 13.22 47th · 2nd on team -0.012
2013-07-08 AAU Track and Field Club Championships 400m 59.36 21st · 1st on team -0.012 ★PR SR
2013-07-06 Region 14 Junior Olympics T&F (2-day) 200m 26.15 7th · 1st on team -0.035 PR SR
2013-07-06 Region 14 Junior Olympics T&F (2-day) 100m 13.03 5th · 1st on team -0.035
2013-07-06 Region 14 Junior Olympics T&F (2-day) 200m 26.4 10th · 2nd on team -0.035
2013-07-06 Region 14 Junior Olympics T&F (2-day) 400m 59.56 2nd · 1st on team -0.035
2013-07-06 Region 14 Junior Olympics T&F (2-day) 100m 13.41 13th · 2nd on team -0.035
2013-06-21 Pacific Association Junior Olympics (3-day) 100m 12.9 14th · 1st on team -0.034
2013-06-21 Pacific Association Junior Olympics (3-day) 200m 26.55 12th · 1st on team -0.034 PR SR
2013-06-21 Pacific Association Junior Olympics (3-day) 400m 59.38 4th · 1st on team -0.034 PR SR
2013-06-21 Pacific Association Junior Olympics (3-day) 400m 59.85 6th · 2nd on team -0.034
2013-06-21 Pacific Association Junior Olympics (3-day) 200m 26.65 13th · 2nd on team -0.034
2013-06-08 Pacific Association Youth Championship (PAC) - 2-day meet 200m 26.78 12th · 2nd on team -0.024
2013-06-08 Pacific Association Youth Championship (PAC) - 2-day meet 100m 12.87 9th · 2nd on team -0.024 PR SR
2013-06-08 Pacific Association Youth Championship (PAC) - 2-day meet 100m 12.84 6th · 1st on team -0.024 PR SR
2013-06-08 Pacific Association Youth Championship (PAC) - 2-day meet 200m 26.69 9th · 1st on team -0.024 PR SR
2013-05-18 3M Track Club 200m 27.48 13th · 1st on team -0.028
2013-05-18 3M Track Club 100m 13.04 14th · 2nd on team -0.028
2013-05-18 3M Track Club 100m 13.01 13th · 1st on team -0.028
2013-05-18 3M Track Club 400m 1:05.29 15th · 1st on team -0.028 PR SR
2013-05-04 Hercules / Running Rebels (2-day) 100m 13.17 18th · 1st on team -0.038
2013-05-04 Hercules / Running Rebels (2-day) 200m 27.46 10th · 1st on team -0.038
2013-04-20 Shor / Sheppard Classic lj 12-09.75 -0.022
2013-04-20 Shor / Sheppard Classic 200m 26.77 7th · 1st on team -0.022 PR SR
2013-04-20 Shor / Sheppard Classic 100m 12.93 5th · 1st on team -0.022 PR SR
2013-04-13 CA Track Club lj 9-00.00 -0.038
2013-04-13 CA Track Club 100m 13.08 3rd · 1st on team -0.038 PR SR
2013-04-13 CA Track Club 400m 1:05.78 2nd · 1st on team -0.038 PR SR
2013-04-13 CA Track Club 200m 27.77 4th · 1st on team -0.038
2013-04-06 Sacramento Speed Showcase 200m 27.77 2nd · 1st on team -0.031 PR SR
2013-04-06 Sacramento Speed Showcase 100m 13.62 4th · 1st on team -0.031 PR SR
2013-04-06 Sacramento Speed Showcase 400m 1:06.46 8th · 2nd on team -0.031 PR SR